createdAt,value
2018-01-22T00:00:22.636Z,187.00
2018-01-22T00:02:48.796Z,210.13
2018-01-22T00:05:14.970Z,188.37
2018-01-22T00:07:41.220Z,191.00
2018-01-22T00:10:07.384Z,243.53
2018-01-22T00:12:33.598Z,231.10
2018-01-22T00:14:59.881Z,198.00
2018-01-22T00:17:26.060Z,147.63
2018-01-22T00:19:52.243Z,199.10
2018-01-22T00:22:18.381Z,154.63
2018-01-22T00:24:44.557Z,162.00
2018-01-22T00:27:10.779Z,169.13
2018-01-22T00:29:36.999Z,137.33
2018-01-22T00:32:03.172Z,163.93
2018-01-22T00:34:29.325Z,153.53
2018-01-22T00:36:55.529Z,157.33
2018-01-22T00:39:21.910Z,155.60
2018-01-22T00:41:48.067Z,128.13
2018-01-22T00:44:14.302Z,153.07
2018-01-22T00:46:40.510Z,182.57
2018-01-22T00:49:06.800Z,156.60
2018-01-22T00:51:32.971Z,162.20
2018-01-22T00:53:59.222Z,131.27
2018-01-22T00:56:25.483Z,145.20
2018-01-22T00:58:51.692Z,145.33
2018-01-22T01:01:17.884Z,148.97
2018-01-22T01:03:44.017Z,186.93
2018-01-22T01:06:10.257Z,151.37
2018-01-22T01:08:36.499Z,138.43
2018-01-22T01:11:02.664Z,201.90
2018-01-22T01:13:28.878Z,205.27
2018-01-22T01:15:55.097Z,317.63
2018-01-22T01:18:21.324Z,285.07
2018-01-22T01:20:47.462Z,422.10
2018-01-22T01:23:13.660Z,365.77
2018-01-22T01:25:39.826Z,444.83
2018-01-22T01:28:05.998Z,390.33
2018-01-22T01:30:32.168Z,289.67
2018-01-22T01:32:58.346Z,358.17
2018-01-22T01:35:24.489Z,330.80
2018-01-22T01:37:50.629Z,315.07
2018-01-22T01:40:18.019Z,418.10
2018-01-22T01:42:44.218Z,335.53
2018-01-22T01:45:10.511Z,287.93
2018-01-22T01:47:36.690Z,301.97
2018-01-22T01:50:02.909Z,317.73
2018-01-22T01:52:29.134Z,229.43
2018-01-22T01:54:55.266Z,287.20
2018-01-22T01:57:21.502Z,233.30
2018-01-22T01:59:47.681Z,243.97
2018-01-22T02:02:13.821Z,241.37
2018-01-22T02:04:40.076Z,226.47
2018-01-22T02:07:06.209Z,200.30
2018-01-22T02:09:32.565Z,182.57
2018-01-22T02:11:58.703Z,197.93
2018-01-22T02:14:24.937Z,206.10
2018-01-22T02:16:51.096Z,183.47
2018-01-22T02:19:17.317Z,187.30
2018-01-22T02:21:43.618Z,152.60
2018-01-22T02:24:09.759Z,121.37
2018-01-22T02:26:35.907Z,105.97
2018-01-22T02:29:02.161Z,112.83
2018-01-22T02:31:28.317Z,96.57
2018-01-22T02:33:54.478Z,114.70
2018-01-22T02:36:20.620Z,93.87
2018-01-22T02:38:46.824Z,77.63
2018-01-22T02:41:13.008Z,81.43
2018-01-22T02:43:39.318Z,93.97
2018-01-22T02:46:05.549Z,114.93
2018-01-22T02:48:31.723Z,109.93
2018-01-22T02:50:57.947Z,70.10
2018-01-22T02:53:25.043Z,100.83
2018-01-22T02:55:51.163Z,94.20
2018-01-22T02:58:17.330Z,80.83
2018-01-22T03:00:43.555Z,82.73
2018-01-22T03:03:09.681Z,80.77
2018-01-22T03:05:35.810Z,76.63
2018-01-22T03:08:02.036Z,57.40
2018-01-22T03:10:28.206Z,58.17
2018-01-22T03:12:54.342Z,52.27
2018-01-22T03:15:20.533Z,55.60
2018-01-22T03:17:46.652Z,47.17
2018-01-22T03:20:12.877Z,49.20
2018-01-22T03:22:39.009Z,61.37
2018-01-22T03:25:05.161Z,55.20
2018-01-22T03:27:31.326Z,41.37
2018-01-22T03:29:57.528Z,51.13
2018-01-22T03:32:23.687Z,42.57
2018-01-22T03:34:49.910Z,57.17
2018-01-22T03:37:16.055Z,47.93
2018-01-22T03:39:42.260Z,47.60
2018-01-22T03:42:08.461Z,44.10
2018-01-22T03:44:34.580Z,43.77
2018-01-22T03:47:00.782Z,44.47
2018-01-22T03:49:26.986Z,34.67
2018-01-22T03:51:53.126Z,39.70
2018-01-22T03:54:19.333Z,35.97
2018-01-22T03:56:45.501Z,32.67
2018-01-22T03:59:11.701Z,43.03
2018-01-22T04:01:37.979Z,35.37
2018-01-22T04:04:04.103Z,36.03
2018-01-22T04:06:30.249Z,35.40
2018-01-22T04:08:56.458Z,36.37
2018-01-22T04:11:22.581Z,24.50
2018-01-22T04:13:48.720Z,42.90
2018-01-22T04:16:14.906Z,35.13
2018-01-22T04:18:41.072Z,30.00
2018-01-22T04:21:07.237Z,35.53
2018-01-22T04:23:33.500Z,35.97
2018-01-22T04:25:59.626Z,29.77
2018-01-22T04:28:25.784Z,42.60
2018-01-22T04:30:51.985Z,32.67
2018-01-22T04:33:18.128Z,27.47
2018-01-22T04:35:44.315Z,25.40
2018-01-22T04:38:10.505Z,28.57
2018-01-22T04:40:36.725Z,36.17
2018-01-22T04:43:02.909Z,29.03
2018-01-22T04:45:29.096Z,32.30
2018-01-22T04:47:55.248Z,29.17
2018-01-22T04:50:21.459Z,21.27
2018-01-22T04:52:47.617Z,28.17
2018-01-22T04:55:13.781Z,29.33
2018-01-22T04:57:39.936Z,28.80
2018-01-22T05:00:06.264Z,26.73
2018-01-22T05:02:32.384Z,37.30
2018-01-22T05:04:58.552Z,26.13
2018-01-22T05:07:25.558Z,30.13
2018-01-22T05:09:51.762Z,25.17
2018-01-22T05:12:17.915Z,38.13
2018-01-22T05:14:44.114Z,34.47
2018-01-22T05:17:10.313Z,33.17
2018-01-22T05:19:36.507Z,35.00
2018-01-22T05:22:02.653Z,32.37
2018-01-22T05:24:28.841Z,35.07
2018-01-22T05:26:55.006Z,39.40
2018-01-22T05:29:21.214Z,35.77
2018-01-22T05:31:47.454Z,33.33
2018-01-22T05:34:13.598Z,25.83
2018-01-22T05:36:39.756Z,28.20
2018-01-22T05:39:06.500Z,33.73
2018-01-22T05:41:32.726Z,37.10
2018-01-22T05:43:58.884Z,39.87
2018-01-22T05:46:25.209Z,39.93
2018-01-22T05:48:51.366Z,40.67
2018-01-22T05:51:17.578Z,37.50
2018-01-22T05:53:43.790Z,35.50
2018-01-22T05:56:09.968Z,39.40
2018-01-22T05:58:36.234Z,39.40
2018-01-22T06:01:02.424Z,36.80
2018-01-22T06:03:28.620Z,55.40
2018-01-22T06:05:54.809Z,43.30
2018-01-22T06:08:20.962Z,36.83
2018-01-22T06:10:47.210Z,39.53
2018-01-22T06:13:13.362Z,49.73
2018-01-22T06:15:39.583Z,44.67
2018-01-22T06:18:05.783Z,39.83
2018-01-22T06:20:32.991Z,41.43
2018-01-22T06:22:59.145Z,41.30
2018-01-22T06:25:25.387Z,44.40
2018-01-22T06:27:51.695Z,37.87
2018-01-22T06:30:17.927Z,49.93
2018-01-22T06:32:44.107Z,38.40
2018-01-22T06:35:10.273Z,40.63
2018-01-22T06:37:36.454Z,40.10
2018-01-22T06:40:02.652Z,38.33
2018-01-22T06:42:28.800Z,44.50
2018-01-22T06:44:54.988Z,45.93
2018-01-22T06:47:21.225Z,41.20
2018-01-22T06:49:47.532Z,52.23
2018-01-22T06:52:13.725Z,38.53
2018-01-22T06:54:39.880Z,46.77
2018-01-22T06:57:06.098Z,46.33
2018-01-22T06:59:32.399Z,39.20
2018-01-22T07:01:58.567Z,44.13
2018-01-22T07:04:24.736Z,37.10
2018-01-22T07:06:50.906Z,39.20
2018-01-22T07:09:17.061Z,36.23
2018-01-22T07:11:43.337Z,38.60
2018-01-22T07:14:09.524Z,32.43
2018-01-22T07:16:36.352Z,33.07
2018-01-22T07:19:02.610Z,48.60
2018-01-22T07:21:28.792Z,36.97
2018-01-22T07:23:54.954Z,36.83
2018-01-22T07:26:21.129Z,42.53
2018-01-22T07:28:47.345Z,40.30
2018-01-22T07:31:13.563Z,37.53
2018-01-22T07:33:39.729Z,35.67
2018-01-22T07:36:05.953Z,41.47
2018-01-22T07:38:32.853Z,34.97
2018-01-22T07:40:59.103Z,27.57
2018-01-22T07:43:25.260Z,27.10
2018-01-22T07:45:51.499Z,31.00
2018-01-22T07:48:17.684Z,31.67
2018-01-22T07:50:43.886Z,31.03
2018-01-22T07:53:10.040Z,31.53
2018-01-22T07:55:36.204Z,36.60
2018-01-22T07:58:02.400Z,27.37
2018-01-22T08:00:28.596Z,28.10
2018-01-22T08:02:54.743Z,35.57
2018-01-22T08:05:20.877Z,28.97
2018-01-22T08:07:47.048Z,27.73
2018-01-22T08:10:13.268Z,30.20
2018-01-22T08:12:39.449Z,26.80
2018-01-22T08:15:05.671Z,32.80
2018-01-22T08:17:31.913Z,26.07
2018-01-22T08:19:58.157Z,37.83
2018-01-22T08:22:24.336Z,35.83
2018-01-22T08:24:50.482Z,33.40
2018-01-22T08:27:16.646Z,35.93
2018-01-22T08:29:42.832Z,38.80
2018-01-22T08:32:09.063Z,34.27
2018-01-22T08:34:35.356Z,29.10
2018-01-22T08:37:01.608Z,40.23
2018-01-22T08:39:27.720Z,39.03
2018-01-22T08:41:53.942Z,34.13
2018-01-22T08:44:20.191Z,43.43
2018-01-22T08:46:46.425Z,31.50
2018-01-22T08:49:12.600Z,35.27
2018-01-22T08:51:38.930Z,39.23
2018-01-22T08:54:05.077Z,31.07
2018-01-22T08:56:31.227Z,39.30
2018-01-22T08:58:57.468Z,34.97
2018-01-22T09:01:24.238Z,37.60
2018-01-22T09:03:50.402Z,36.23
2018-01-22T09:06:16.570Z,35.33
2018-01-22T09:08:42.724Z,33.00
2018-01-22T09:11:08.925Z,37.30
2018-01-22T09:13:35.096Z,27.57
2018-01-22T09:16:01.354Z,30.20
2018-01-22T09:18:27.510Z,37.17
2018-01-22T09:20:53.823Z,24.13
2018-01-22T09:23:20.868Z,27.13
2018-01-22T09:25:47.032Z,31.03
2018-01-22T09:28:13.291Z,22.27
2018-01-22T09:30:39.486Z,19.17
2018-01-22T09:33:05.637Z,22.70
2018-01-22T09:35:31.923Z,17.10
2018-01-22T09:37:58.102Z,27.33
2018-01-22T09:40:24.347Z,22.30
2018-01-22T09:42:50.490Z,17.73
2018-01-22T09:45:16.784Z,22.30
2018-01-22T09:47:42.946Z,18.07
2018-01-22T09:50:09.192Z,16.13
2018-01-22T09:52:35.435Z,22.37
2018-01-22T09:55:01.696Z,15.50
2018-01-22T09:57:27.796Z,16.33
2018-01-22T09:59:53.923Z,12.87
2018-01-22T10:02:20.035Z,18.83
2018-01-22T10:04:46.131Z,13.20
2018-01-22T10:07:12.287Z,17.00
2018-01-22T10:09:41.625Z,12.10
2018-01-22T10:12:08.335Z,14.40
2018-01-22T10:14:34.637Z,15.90
2018-01-22T10:17:00.826Z,13.97
2018-01-22T10:19:26.988Z,15.47
2018-01-22T10:21:53.187Z,13.90
2018-01-22T10:24:19.421Z,10.20
2018-01-22T10:26:45.762Z,12.80
2018-01-22T10:29:12.048Z,13.80
2018-01-22T10:31:38.324Z,14.90
2018-01-22T10:34:04.773Z,11.03
2018-01-22T10:36:30.914Z,13.07
2018-01-22T10:38:57.106Z,12.50
2018-01-22T10:41:23.309Z,12.77
2018-01-22T10:43:49.439Z,15.33
2018-01-22T10:46:15.732Z,11.13
2018-01-22T10:48:41.895Z,17.13
2018-01-22T10:51:08.102Z,15.60
2018-01-22T10:53:34.232Z,13.73
2018-01-22T10:56:00.382Z,17.50
2018-01-22T10:58:26.588Z,16.67
2018-01-22T11:00:52.824Z,15.03
2018-01-22T11:03:18.991Z,12.70
2018-01-22T11:05:45.240Z,15.23
2018-01-22T11:08:11.400Z,16.23
2018-01-22T11:10:37.575Z,14.13
2018-01-22T11:13:03.812Z,14.00
2018-01-22T11:15:36.003Z,11.00
2018-01-22T11:18:02.152Z,11.90
2018-01-22T11:20:28.331Z,9.90
2018-01-22T11:22:54.529Z,13.83
2018-01-22T11:25:20.683Z,13.40
2018-01-22T11:27:46.872Z,13.57
2018-01-22T11:30:13.033Z,13.90
2018-01-22T11:32:39.502Z,12.40
2018-01-22T11:35:05.687Z,16.90
2018-01-22T11:37:31.818Z,14.77
2018-01-22T11:39:59.032Z,15.13
2018-01-22T11:42:25.289Z,14.97
2018-01-22T11:44:53.298Z,10.20
2018-01-22T11:47:19.544Z,12.83
2018-01-22T11:49:45.740Z,16.20
2018-01-22T11:52:11.977Z,14.00
2018-01-22T11:54:38.201Z,11.80
2018-01-22T11:57:04.424Z,14.27
2018-01-22T11:59:30.744Z,14.47
2018-01-22T12:01:56.928Z,13.13
2018-01-22T12:04:23.182Z,11.87
2018-01-22T12:06:49.395Z,13.43
2018-01-22T12:09:15.598Z,13.50
2018-01-22T12:11:41.764Z,11.77
2018-01-22T12:14:07.944Z,16.07
2018-01-22T12:16:34.181Z,13.73
2018-01-22T12:19:00.383Z,17.03
2018-01-22T12:21:26.579Z,13.97
2018-01-22T12:23:52.761Z,17.63
2018-01-22T12:26:18.937Z,13.63
2018-01-22T12:28:45.113Z,16.40
2018-01-22T12:31:11.307Z,16.07
2018-01-22T12:33:37.519Z,14.57
2018-01-22T12:36:03.786Z,14.50
2018-01-22T12:38:29.968Z,14.70
2018-01-22T12:40:56.279Z,12.57
2018-01-22T12:43:22.477Z,14.97
2018-01-22T12:45:48.712Z,13.33
2018-01-22T12:48:14.982Z,15.73
2018-01-22T12:50:41.258Z,17.40
2018-01-22T12:53:07.563Z,11.03
2018-01-22T12:55:34.089Z,20.67
2018-01-22T12:58:01.453Z,15.07
2018-01-22T13:00:27.767Z,16.97
2018-01-22T13:02:53.994Z,19.87
2018-01-22T13:05:20.233Z,15.83
2018-01-22T13:07:46.476Z,18.07
2018-01-22T13:10:12.786Z,13.67
2018-01-22T13:12:38.961Z,15.97
2018-01-22T13:15:05.190Z,15.70
2018-01-22T13:17:31.438Z,15.23
2018-01-22T13:19:58.932Z,16.40
2018-01-22T13:22:25.088Z,16.97
2018-01-22T13:24:51.380Z,14.83
2018-01-22T13:27:17.569Z,14.43
2018-01-22T13:29:43.823Z,18.43
2018-01-22T13:32:10.021Z,16.13
2018-01-22T13:34:36.233Z,10.83
2018-01-22T13:37:02.552Z,11.30
2018-01-22T13:39:28.819Z,14.37
2018-01-22T13:41:56.177Z,12.90
2018-01-22T13:44:22.452Z,16.50
2018-01-22T13:46:48.838Z,14.50
2018-01-22T13:49:15.224Z,12.47
2018-01-22T13:51:41.413Z,15.73
2018-01-22T13:54:07.609Z,16.13
2018-01-22T13:56:33.836Z,19.70
2018-01-22T13:59:00.010Z,20.50
2018-01-22T14:01:26.304Z,15.60
2018-01-22T14:03:52.649Z,16.17
2018-01-22T14:06:18.845Z,23.83
2018-01-22T14:08:45.019Z,17.07
2018-01-22T14:11:11.285Z,13.97
2018-01-22T14:13:37.485Z,14.67
2018-01-22T14:16:03.729Z,13.10
2018-01-22T14:18:29.956Z,15.50
2018-01-22T14:20:56.235Z,17.60
2018-01-22T14:23:22.431Z,19.33
2018-01-22T14:25:48.645Z,17.20
2018-01-22T14:28:14.878Z,14.70
2018-01-22T14:30:41.094Z,22.10
2018-01-22T14:33:07.286Z,16.90
2018-01-22T14:35:33.476Z,15.60
2018-01-22T14:37:59.670Z,13.83
2018-01-22T14:40:25.842Z,15.47
2018-01-22T14:42:52.062Z,16.67
2018-01-22T14:45:18.347Z,14.10
2018-01-22T14:47:44.559Z,15.27
2018-01-22T14:50:10.768Z,16.43
2018-01-22T14:52:37.031Z,13.37
2018-01-22T14:55:03.281Z,21.20
2018-01-22T14:57:29.451Z,18.47
2018-01-22T14:59:55.681Z,18.20
2018-01-22T15:02:21.906Z,16.77
2018-01-22T15:04:53.385Z,17.33
2018-01-22T15:07:19.679Z,21.27
2018-01-22T15:09:45.920Z,17.17
2018-01-22T15:12:12.072Z,19.17
2018-01-22T15:14:38.296Z,19.33
2018-01-22T15:17:04.472Z,15.17
2018-01-22T15:19:30.886Z,14.13
2018-01-22T15:21:57.165Z,11.87
2018-01-22T15:24:23.376Z,16.93
2018-01-22T15:26:49.612Z,13.27
2018-01-22T15:29:15.834Z,17.70
2018-01-22T15:31:42.068Z,18.93
2018-01-22T15:34:08.354Z,16.90
2018-01-22T15:36:34.669Z,13.07
2018-01-22T15:39:00.996Z,18.43
2018-01-22T15:41:27.406Z,14.77
2018-01-22T15:43:53.671Z,21.57
2018-01-22T15:46:20.118Z,17.83
2018-01-22T15:48:46.370Z,21.97
2018-01-22T15:51:12.609Z,18.77
2018-01-22T15:53:38.880Z,8.10
2018-01-22T15:56:05.216Z,18.40
2018-01-22T15:58:31.458Z,18.23
2018-01-22T16:00:57.752Z,14.10
2018-01-22T16:03:24.075Z,20.60
2018-01-22T16:05:50.305Z,19.60
2018-01-22T16:08:16.578Z,15.83
2018-01-22T16:10:43.065Z,15.23
2018-01-22T16:13:09.847Z,19.03
2018-01-22T16:15:36.095Z,12.97
2018-01-22T16:18:02.308Z,16.83
2018-01-22T16:20:28.584Z,19.13
2018-01-22T16:22:54.788Z,14.30
2018-01-22T16:25:20.986Z,18.60
2018-01-22T16:27:47.243Z,15.47
2018-01-22T16:30:13.479Z,13.43
2018-01-22T16:32:39.657Z,11.07
2018-01-22T16:35:05.889Z,12.83
2018-01-22T16:37:32.063Z,13.87
2018-01-22T16:39:58.266Z,17.73
2018-01-22T16:42:25.468Z,25.77
2018-01-22T16:44:51.689Z,20.83
2018-01-22T16:47:24.757Z,21.23
2018-01-22T16:49:51.003Z,19.10
2018-01-22T16:52:17.252Z,12.30
2018-01-22T16:54:43.471Z,20.57
2018-01-22T16:57:09.692Z,15.30
2018-01-22T16:59:35.991Z,21.20
2018-01-22T17:02:02.232Z,20.80
2018-01-22T17:04:28.432Z,20.43
2018-01-22T17:06:54.621Z,19.60
2018-01-22T17:09:20.852Z,16.23
2018-01-22T17:11:47.116Z,16.87
2018-01-22T17:14:13.309Z,17.43
2018-01-22T17:16:39.551Z,21.23
2018-01-22T17:19:05.781Z,19.30
2018-01-22T17:21:32.001Z,21.30
2018-01-22T17:23:58.180Z,21.87
2018-01-22T17:26:24.377Z,19.63
2018-01-22T17:28:50.668Z,21.23
2018-01-22T17:31:17.027Z,20.27
2018-01-22T17:33:43.269Z,16.07
2018-01-22T17:36:09.432Z,15.77
2018-01-22T17:38:35.625Z,23.83
2018-01-22T17:41:01.816Z,18.83
2018-01-22T17:43:28.005Z,28.10
2018-01-22T17:45:54.264Z,18.23
2018-01-22T17:48:20.417Z,23.70
2018-01-22T17:50:46.869Z,17.27
2018-01-22T17:53:13.051Z,16.63
2018-01-22T17:55:39.190Z,19.80
2018-01-22T17:58:05.494Z,22.00
2018-01-22T18:00:31.687Z,15.67
2018-01-22T18:02:57.958Z,17.33
2018-01-22T18:05:24.179Z,22.77
2018-01-22T18:07:50.365Z,17.23
2018-01-22T18:10:16.596Z,17.63
2018-01-22T18:12:42.834Z,20.90
2018-01-22T18:15:09.135Z,23.03
2018-01-22T18:17:35.437Z,16.53
2018-01-22T18:20:01.717Z,19.53
2018-01-22T18:22:27.999Z,19.43
2018-01-22T18:24:54.477Z,17.20
2018-01-22T18:27:20.807Z,19.40
2018-01-22T18:29:47.030Z,16.13
2018-01-22T18:32:13.291Z,20.73
2018-01-22T18:34:39.571Z,19.50
2018-01-22T18:37:05.752Z,23.77
2018-01-22T18:39:31.986Z,15.70
2018-01-22T18:41:58.439Z,26.40
2018-01-22T18:44:24.748Z,23.20
2018-01-22T18:46:52.732Z,22.37
2018-01-22T18:49:18.976Z,25.17
2018-01-22T18:51:45.380Z,25.13
2018-01-22T18:54:11.719Z,21.77
2018-01-22T18:56:37.858Z,18.70
2018-01-22T18:59:04.091Z,29.00
2018-01-22T19:01:30.436Z,33.63
2018-01-22T19:03:56.671Z,20.90
2018-01-22T19:06:22.831Z,21.30
2018-01-22T19:08:49.033Z,23.03
2018-01-22T19:11:15.337Z,11.07
2018-01-22T19:13:41.552Z,11.83
2018-01-22T19:16:07.828Z,18.83
2018-01-22T19:18:34.010Z,15.13
2018-01-22T19:21:00.308Z,18.93
2018-01-22T19:23:26.463Z,19.43
2018-01-22T19:25:52.631Z,15.57
2018-01-22T19:28:18.780Z,17.93
2018-01-22T19:30:45.018Z,17.40
2018-01-22T19:33:11.271Z,15.33
2018-01-22T19:35:37.452Z,12.77
2018-01-22T19:38:03.651Z,15.77
2018-01-22T19:40:29.904Z,17.63
2018-01-22T19:42:56.168Z,16.63
2018-01-22T19:45:22.377Z,15.97
2018-01-22T19:47:48.570Z,14.87
2018-01-22T19:50:14.722Z,17.57
2018-01-22T19:52:41.662Z,13.90
2018-01-22T19:55:08.003Z,17.13
2018-01-22T19:57:34.169Z,14.57
2018-01-22T20:00:00.336Z,17.47
2018-01-22T20:02:26.580Z,19.27
2018-01-22T20:04:52.768Z,17.17
2018-01-22T20:07:18.959Z,15.43
2018-01-22T20:09:45.225Z,16.10
2018-01-22T20:12:11.454Z,16.07
2018-01-22T20:14:37.616Z,11.93
2018-01-22T20:17:03.815Z,17.27
2018-01-22T20:19:30.008Z,13.20
2018-01-22T20:21:57.002Z,14.17
2018-01-22T20:24:23.212Z,15.23
2018-01-22T20:26:49.377Z,14.73
2018-01-22T20:29:15.520Z,14.47
2018-01-22T20:31:41.707Z,14.03
2018-01-22T20:34:07.947Z,18.00
2018-01-22T20:36:35.290Z,16.97
2018-01-22T20:39:01.592Z,16.50
2018-01-22T20:41:27.913Z,14.73
2018-01-22T20:43:54.054Z,16.13
2018-01-22T20:46:20.288Z,17.90
2018-01-22T20:48:46.520Z,10.97
2018-01-22T20:51:12.727Z,16.20
2018-01-22T20:53:39.041Z,14.33
2018-01-22T20:56:05.200Z,10.47
2018-01-22T20:58:32.773Z,15.83
2018-01-22T21:00:58.933Z,13.73
2018-01-22T21:03:25.172Z,10.30
2018-01-22T21:05:51.405Z,13.73
2018-01-22T21:08:17.562Z,18.97
2018-01-22T21:10:43.765Z,13.23
2018-01-22T21:13:09.960Z,8.27
2018-01-22T21:15:36.171Z,12.23
2018-01-22T21:18:02.419Z,19.50
2018-01-22T21:20:28.977Z,11.90
2018-01-22T21:22:55.217Z,10.23
2018-01-22T21:25:21.417Z,13.47
2018-01-22T21:27:47.570Z,12.43
2018-01-22T21:30:13.725Z,11.87
2018-01-22T21:32:39.971Z,17.33
2018-01-22T21:35:06.180Z,12.47
2018-01-22T21:37:32.386Z,12.60
2018-01-22T21:39:58.607Z,14.70
2018-01-22T21:42:24.824Z,9.20
2018-01-22T21:44:50.988Z,13.03
2018-01-22T21:47:17.256Z,7.60
2018-01-22T21:49:43.421Z,10.23
2018-01-22T21:52:09.597Z,10.77
2018-01-22T21:54:35.790Z,12.80
2018-01-22T21:57:02.029Z,12.70
2018-01-22T21:59:28.175Z,8.60
2018-01-22T22:01:54.425Z,11.77
2018-01-22T22:04:20.570Z,8.70
2018-01-22T22:06:46.739Z,10.23
2018-01-22T22:09:12.933Z,12.17
2018-01-22T22:11:39.099Z,16.17
2018-01-22T22:14:05.435Z,11.97
2018-01-22T22:16:33.194Z,16.13
2018-01-22T22:18:59.356Z,11.73
2018-01-22T22:21:25.588Z,10.63
2018-01-22T22:23:51.790Z,13.77
2018-01-22T22:26:17.952Z,14.10
2018-01-22T22:28:44.209Z,12.63
2018-01-22T22:31:10.377Z,12.20
2018-01-22T22:33:36.612Z,19.03
2018-01-22T22:36:02.797Z,14.47
2018-01-22T22:38:28.998Z,11.97
2018-01-22T22:40:55.184Z,12.60
2018-01-22T22:43:21.449Z,12.73
2018-01-22T22:45:47.652Z,14.97
2018-01-22T22:48:13.798Z,13.33
2018-01-22T22:50:39.989Z,12.00
2018-01-22T22:53:06.205Z,13.67
2018-01-22T22:55:32.410Z,13.60
2018-01-22T22:57:58.589Z,10.83
2018-01-22T23:00:24.785Z,12.10
2018-01-22T23:02:50.970Z,12.50
2018-01-22T23:05:18.197Z,14.47
2018-01-22T23:07:44.451Z,8.53
2018-01-22T23:10:10.613Z,16.90
2018-01-22T23:12:36.842Z,14.77
2018-01-22T23:15:03.082Z,10.80
2018-01-22T23:17:29.291Z,10.90
2018-01-22T23:19:55.494Z,11.77
2018-01-22T23:22:21.692Z,10.67
2018-01-22T23:24:48.081Z,12.70
2018-01-22T23:27:14.414Z,10.33
2018-01-22T23:29:40.573Z,14.33
2018-01-22T23:32:06.749Z,13.17
2018-01-22T23:34:32.909Z,14.00
2018-01-22T23:36:59.066Z,8.77
2018-01-22T23:39:25.255Z,12.00
2018-01-22T23:41:51.426Z,10.13
2018-01-22T23:44:17.623Z,14.27
2018-01-22T23:46:43.812Z,19.07
2018-01-22T23:49:10.005Z,11.77
2018-01-22T23:51:36.177Z,12.80
2018-01-22T23:54:02.382Z,11.77
2018-01-22T23:56:28.512Z,10.37
2018-01-22T23:58:54.660Z,14.63
